Current Conditions
Scattered
Clouds



Pressure
997.97 (mb) - 29.47 (inHG)
Visibility

9.7 (km) - 6.0 (miles)
Temperature
6  °C
Temperature
0  °C
Dewpoint
66  %
 Humidity
Wind Speed
5.8  m/s
13  mph
21  km/h
11  kts
Wind Direction
N
45°
E
90°
135°
S
180°
225°
W
270°
315°
 200°

South South
West
Airport Data
ENAL
Ă…lesund Airport, Vigra
Metar :ENAL 272220Z AUTO 20011KT 9999 SCT044/// 06/00 Q0998
Tue 27th February 23:20 pm
Raw Metar Info
Raw METAR is the most common format in the world for the transmission of observational weather data. It is highly standardized through the International Civil Aviation Organization (ICAO), which allows it to be understood throughout most of the world.
API Info
Data Provided by
https://www.checkwx.com/weather/ENAL

Aviation Weather providing METAR, TAF, AIRMET, SIGMET and OUTLOOK Weather Reports
© Info
CSS/SVG/PHP scripts were developed by weather34.com for use in the weather34 template © 2015-2024

Guide Info provided by Metar-Wikipedia